sensor_id;sensor_type;location;lat;lon;timestamp;pressure;altitude;pressure_sealevel;temperature;humidity
8416;BME280;4245;42.120;24.732;2023-04-07T00:02:16;99127.56;;;7.52;51.49
8416;BME280;4245;42.120;24.732;2023-04-07T00:04:43;99125.41;;;7.44;52.18
8416;BME280;4245;42.120;24.732;2023-04-07T00:07:10;99130.78;;;7.57;50.72
8416;BME280;4245;42.120;24.732;2023-04-07T00:09:38;99130.03;;;7.55;51.84
8416;BME280;4245;42.120;24.732;2023-04-07T00:12:05;99124.03;;;7.37;52.10
8416;BME280;4245;42.120;24.732;2023-04-07T00:14:32;99118.41;;;7.43;52.59
8416;BME280;4245;42.120;24.732;2023-04-07T00:16:59;99131.16;;;7.51;51.74
8416;BME280;4245;42.120;24.732;2023-04-07T00:19:26;99116.13;;;7.51;51.86
8416;BME280;4245;42.120;24.732;2023-04-07T00:21:53;99122.19;;;7.53;52.13
8416;BME280;4245;42.120;24.732;2023-04-07T00:24:20;99118.63;;;7.54;52.88
8416;BME280;4245;42.120;24.732;2023-04-07T00:26:48;99110.56;;;7.56;52.68
8416;BME280;4245;42.120;24.732;2023-04-07T00:29:15;99118.03;;;7.35;52.80
8416;BME280;4245;42.120;24.732;2023-04-07T00:31:42;99120.16;;;7.28;53.53
8416;BME280;4245;42.120;24.732;2023-04-07T00:34:09;99121.31;;;7.38;52.98
8416;BME280;4245;42.120;24.732;2023-04-07T00:36:36;99118.56;;;7.26;53.45
8416;BME280;4245;42.120;24.732;2023-04-07T00:39:03;99123.84;;;7.26;54.13
8416;BME280;4245;42.120;24.732;2023-04-07T00:41:33;99116.69;;;7.28;53.58
8416;BME280;4245;42.120;24.732;2023-04-07T00:44:01;99122.03;;;7.26;54.43
8416;BME280;4245;42.120;24.732;2023-04-07T00:46:28;99124.81;;;7.39;53.76
8416;BME280;4245;42.120;24.732;2023-04-07T00:48:55;99118.47;;;7.27;54.67
8416;BME280;4245;42.120;24.732;2023-04-07T00:51:22;99124.44;;;7.31;54.28
8416;BME280;4245;42.120;24.732;2023-04-07T00:53:49;99126.53;;;7.10;54.27
8416;BME280;4245;42.120;24.732;2023-04-07T00:56:15;99127.69;;;7.20;53.43
8416;BME280;4245;42.120;24.732;2023-04-07T00:58:42;99118.44;;;7.13;52.58
8416;BME280;4245;42.120;24.732;2023-04-07T01:01:15;99120.22;;;7.13;53.60
8416;BME280;4245;42.120;24.732;2023-04-07T01:03:48;99114.09;;;7.26;52.33
8416;BME280;4245;42.120;24.732;2023-04-07T01:06:17;99122.41;;;7.20;52.40
8416;BME280;4245;42.120;24.732;2023-04-07T01:08:50;99123.84;;;7.26;52.12
8416;BME280;4245;42.120;24.732;2023-04-07T01:11:23;99116.41;;;7.32;52.64
8416;BME280;4245;42.120;24.732;2023-04-07T01:13:52;99122.22;;;7.23;52.03
8416;BME280;4245;42.120;24.732;2023-04-07T01:16:23;99120.78;;;7.18;52.12
8416;BME280;4245;42.120;24.732;2023-04-07T01:18:55;99119.88;;;7.19;52.46
8416;BME280;4245;42.120;24.732;2023-04-07T01:21:25;99117.41;;;7.16;51.84
8416;BME280;4245;42.120;24.732;2023-04-07T01:24:16;99119.75;;;7.06;52.25
8416;BME280;4245;42.120;24.732;2023-04-07T01:26:45;99129.38;;;7.21;51.73
8416;BME280;4245;42.120;24.732;2023-04-07T01:29:31;99135.97;;;7.14;51.82
8416;BME280;4245;42.120;24.732;2023-04-07T01:32:01;99127.25;;;6.98;52.45
8416;BME280;4245;42.120;24.732;2023-04-07T01:34:30;99131.72;;;7.12;52.04
8416;BME280;4245;42.120;24.732;2023-04-07T01:37:00;99130.19;;;7.08;52.08
8416;BME280;4245;42.120;24.732;2023-04-07T01:39:27;99133.63;;;6.94;52.41
8416;BME280;4245;42.120;24.732;2023-04-07T01:41:55;99131.66;;;6.97;52.29
8416;BME280;4245;42.120;24.732;2023-04-07T01:44:23;99134.16;;;6.85;52.70
8416;BME280;4245;42.120;24.732;2023-04-07T01:46:53;99132.78;;;6.93;52.16
8416;BME280;4245;42.120;24.732;2023-04-07T01:49:22;99134.94;;;6.87;51.88
8416;BME280;4245;42.120;24.732;2023-04-07T01:51:51;99136.59;;;7.04;51.64
8416;BME280;4245;42.120;24.732;2023-04-07T01:54:19;99132.84;;;7.08;52.18
8416;BME280;4245;42.120;24.732;2023-04-07T01:56:47;99138.81;;;7.11;52.21
8416;BME280;4245;42.120;24.732;2023-04-07T01:59:14;99135.44;;;6.93;52.10
8416;BME280;4245;42.120;24.732;2023-04-07T02:01:41;99129.56;;;6.88;52.47
8416;BME280;4245;42.120;24.732;2023-04-07T02:04:11;99132.91;;;6.76;53.20
8416;BME280;4245;42.120;24.732;2023-04-07T02:06:44;99126.34;;;6.83;53.61
8416;BME280;4245;42.120;24.732;2023-04-07T02:09:15;99127.28;;;6.82;53.37
8416;BME280;4245;42.120;24.732;2023-04-07T02:11:44;99123.88;;;6.80;53.18
8416;BME280;4245;42.120;24.732;2023-04-07T02:14:13;99120.31;;;6.81;52.69
8416;BME280;4245;42.120;24.732;2023-04-07T02:16:40;99133.78;;;6.77;53.29
8416;BME280;4245;42.120;24.732;2023-04-07T02:19:09;99127.38;;;6.65;53.81
8416;BME280;4245;42.120;24.732;2023-04-07T02:21:39;99130.38;;;6.59;54.26
8416;BME280;4245;42.120;24.732;2023-04-07T02:24:07;99123.81;;;6.66;54.46
8416;BME280;4245;42.120;24.732;2023-04-07T02:26:34;99126.97;;;6.57;54.46
8416;BME280;4245;42.120;24.732;2023-04-07T02:29:01;99133.78;;;6.61;54.46
8416;BME280;4245;42.120;24.732;2023-04-07T02:31:28;99128.25;;;6.50;54.89
8416;BME280;4245;42.120;24.732;2023-04-07T02:33:55;99131.53;;;6.69;53.99
8416;BME280;4245;42.120;24.732;2023-04-07T02:36:23;99128.25;;;6.66;53.29
8416;BME280;4245;42.120;24.732;2023-04-07T02:38:50;99123.75;;;6.68;53.50
8416;BME280;4245;42.120;24.732;2023-04-07T02:41:17;99127.84;;;6.58;53.95
8416;BME280;4245;42.120;24.732;2023-04-07T02:43:45;99127.91;;;6.56;53.48
8416;BME280;4245;42.120;24.732;2023-04-07T02:46:12;99129.09;;;6.50;54.00
8416;BME280;4245;42.120;24.732;2023-04-07T02:48:39;99138.53;;;6.54;53.64
8416;BME280;4245;42.120;24.732;2023-04-07T02:51:06;99124.94;;;6.46;54.14
8416;BME280;4245;42.120;24.732;2023-04-07T02:53:35;99133.09;;;6.42;53.61
8416;BME280;4245;42.120;24.732;2023-04-07T02:56:02;99137.59;;;6.40;53.42
8416;BME280;4245;42.120;24.732;2023-04-07T02:58:29;99131.72;;;6.35;53.70
8416;BME280;4245;42.120;24.732;2023-04-07T03:00:56;99137.00;;;6.35;53.45
8416;BME280;4245;42.120;24.732;2023-04-07T03:03:23;99132.06;;;6.44;53.34
8416;BME280;4245;42.120;24.732;2023-04-07T03:05:49;99131.81;;;6.49;53.15
8416;BME280;4245;42.120;24.732;2023-04-07T03:08:16;99136.84;;;6.22;53.59
8416;BME280;4245;42.120;24.732;2023-04-07T03:10:45;99137.19;;;6.32;53.77
8416;BME280;4245;42.120;24.732;2023-04-07T03:13:12;99130.41;;;6.43;53.61
8416;BME280;4245;42.120;24.732;2023-04-07T03:15:41;99136.34;;;6.31;53.60
8416;BME280;4245;42.120;24.732;2023-04-07T03:18:08;99133.28;;;6.39;53.86
8416;BME280;4245;42.120;24.732;2023-04-07T03:20:35;99138.06;;;6.48;54.17
8416;BME280;4245;42.120;24.732;2023-04-07T03:23:02;99134.38;;;6.35;55.04
8416;BME280;4245;42.120;24.732;2023-04-07T03:25:29;99128.84;;;6.39;55.21
8416;BME280;4245;42.120;24.732;2023-04-07T03:27:58;99136.59;;;6.42;54.63
8416;BME280;4245;42.120;24.732;2023-04-07T03:30:25;99134.28;;;6.36;55.02
8416;BME280;4245;42.120;24.732;2023-04-07T03:32:52;99133.69;;;6.47;54.56
8416;BME280;4245;42.120;24.732;2023-04-07T03:35:19;99137.59;;;6.40;55.03
8416;BME280;4245;42.120;24.732;2023-04-07T03:37:46;99144.50;;;6.42;54.89
8416;BME280;4245;42.120;24.732;2023-04-07T03:40:13;99144.00;;;6.36;54.87
8416;BME280;4245;42.120;24.732;2023-04-07T03:42:40;99148.53;;;6.34;55.10
8416;BME280;4245;42.120;24.732;2023-04-07T03:45:09;99146.03;;;6.46;55.03
8416;BME280;4245;42.120;24.732;2023-04-07T03:47:36;99148.25;;;6.38;55.20
8416;BME280;4245;42.120;24.732;2023-04-07T03:50:03;99156.06;;;6.40;54.90
8416;BME280;4245;42.120;24.732;2023-04-07T03:52:30;99150.81;;;6.55;54.33
8416;BME280;4245;42.120;24.732;2023-04-07T03:54:57;99161.69;;;6.49;54.48
8416;BME280;4245;42.120;24.732;2023-04-07T03:57:24;99157.38;;;6.48;54.80
8416;BME280;4245;42.120;24.732;2023-04-07T03:59:51;99162.88;;;6.44;54.42
8416;BME280;4245;42.120;24.732;2023-04-07T04:02:21;99155.75;;;6.46;54.73
8416;BME280;4245;42.120;24.732;2023-04-07T04:04:48;99162.03;;;6.59;54.05
8416;BME280;4245;42.120;24.732;2023-04-07T04:07:14;99160.00;;;6.48;54.36
8416;BME280;4245;42.120;24.732;2023-04-07T04:09:41;99160.50;;;6.55;54.57
8416;BME280;4245;42.120;24.732;2023-04-07T04:12:08;99157.88;;;6.55;53.93
8416;BME280;4245;42.120;24.732;2023-04-07T04:14:35;99158.53;;;6.59;53.86
8416;BME280;4245;42.120;24.732;2023-04-07T04:17:02;99163.75;;;6.60;54.07
8416;BME280;4245;42.120;24.732;2023-04-07T04:19:31;99169.34;;;6.70;54.33
8416;BME280;4245;42.120;24.732;2023-04-07T04:21:58;99176.06;;;6.60;55.40
8416;BME280;4245;42.120;24.732;2023-04-07T04:24:24;99176.69;;;6.65;55.05
8416;BME280;4245;42.120;24.732;2023-04-07T04:26:51;99185.44;;;6.49;55.64
8416;BME280;4245;42.120;24.732;2023-04-07T04:29:18;99175.00;;;6.48;57.16
8416;BME280;4245;42.120;24.732;2023-04-07T04:31:45;99189.63;;;6.69;55.56
8416;BME280;4245;42.120;24.732;2023-04-07T04:34:12;99178.38;;;6.81;54.99
8416;BME280;4245;42.120;24.732;2023-04-07T04:36:40;99186.56;;;6.77;55.45
8416;BME280;4245;42.120;24.732;2023-04-07T04:39:07;99188.09;;;6.81;60.32
8416;BME280;4245;42.120;24.732;2023-04-07T04:41:35;99186.31;;;6.81;58.38
8416;BME280;4245;42.120;24.732;2023-04-07T04:44:02;99192.00;;;6.89;56.84
8416;BME280;4245;42.120;24.732;2023-04-07T04:46:29;99187.03;;;6.83;55.90
8416;BME280;4245;42.120;24.732;2023-04-07T04:48:56;99196.50;;;6.87;55.83
8416;BME280;4245;42.120;24.732;2023-04-07T04:51:23;99197.88;;;6.94;56.00
8416;BME280;4245;42.120;24.732;2023-04-07T04:53:52;99202.88;;;6.99;55.94
8416;BME280;4245;42.120;24.732;2023-04-07T04:56:19;99207.22;;;7.00;55.60
8416;BME280;4245;42.120;24.732;2023-04-07T04:58:46;99210.63;;;7.02;55.15
8416;BME280;4245;42.120;24.732;2023-04-07T05:01:13;99201.34;;;6.95;56.20
8416;BME280;4245;42.120;24.732;2023-04-07T05:03:40;99207.50;;;6.95;56.34
8416;BME280;4245;42.120;24.732;2023-04-07T05:06:07;99215.22;;;7.14;55.40
8416;BME280;4245;42.120;24.732;2023-04-07T05:08:34;99217.69;;;7.17;54.94
8416;BME280;4245;42.120;24.732;2023-04-07T05:11:02;99222.03;;;7.18;55.04
8416;BME280;4245;42.120;24.732;2023-04-07T05:13:29;99219.16;;;7.37;54.46
8416;BME280;4245;42.120;24.732;2023-04-07T05:15:56;99219.69;;;7.43;54.61
8416;BME280;4245;42.120;24.732;2023-04-07T05:18:23;99226.13;;;7.54;54.66
8416;BME280;4245;42.120;24.732;2023-04-07T05:20:50;99229.31;;;7.74;53.89
8416;BME280;4245;42.120;24.732;2023-04-07T05:23:17;99229.69;;;7.82;53.97
8416;BME280;4245;42.120;24.732;2023-04-07T05:25:44;99235.19;;;7.94;52.26
8416;BME280;4245;42.120;24.732;2023-04-07T05:28:12;99226.78;;;8.01;51.74
8416;BME280;4245;42.120;24.732;2023-04-07T05:30:39;99234.75;;;8.15;52.15
8416;BME280;4245;42.120;24.732;2023-04-07T05:33:06;99232.19;;;8.28;51.25
8416;BME280;4245;42.120;24.732;2023-04-07T05:35:33;99236.69;;;8.42;50.52
8416;BME280;4245;42.120;24.732;2023-04-07T05:38:00;99238.19;;;8.46;50.65
8416;BME280;4245;42.120;24.732;2023-04-07T05:40:27;99232.22;;;8.56;50.26
8416;BME280;4245;42.120;24.732;2023-04-07T05:42:54;99232.66;;;8.77;50.12
8416;BME280;4245;42.120;24.732;2023-04-07T05:45:23;99234.31;;;8.92;48.93
8416;BME280;4245;42.120;24.732;2023-04-07T05:47:49;99240.44;;;9.07;49.59
8416;BME280;4245;42.120;24.732;2023-04-07T05:50:17;99237.41;;;9.13;49.80
8416;BME280;4245;42.120;24.732;2023-04-07T05:52:44;99241.50;;;9.31;46.31
8416;BME280;4245;42.120;24.732;2023-04-07T05:55:11;99238.34;;;9.39;45.29
8416;BME280;4245;42.120;24.732;2023-04-07T05:57:38;99240.63;;;9.57;44.31
8416;BME280;4245;42.120;24.732;2023-04-07T06:00:06;99247.19;;;9.52;44.82
8416;BME280;4245;42.120;24.732;2023-04-07T06:02:34;99239.47;;;9.62;44.50
8416;BME280;4245;42.120;24.732;2023-04-07T06:05:01;99237.69;;;9.75;44.65
8416;BME280;4245;42.120;24.732;2023-04-07T06:07:28;99242.50;;;9.82;44.51
8416;BME280;4245;42.120;24.732;2023-04-07T06:09:55;99238.50;;;10.02;43.80
8416;BME280;4245;42.120;24.732;2023-04-07T06:12:22;99233.06;;;10.03;43.44
8416;BME280;4245;42.120;24.732;2023-04-07T06:14:52;99239.25;;;10.29;41.84
8416;BME280;4245;42.120;24.732;2023-04-07T06:17:19;99248.34;;;10.00;42.36
8416;BME280;4245;42.120;24.732;2023-04-07T06:19:47;99247.28;;;10.15;41.94
8416;BME280;4245;42.120;24.732;2023-04-07T06:22:14;99246.97;;;10.07;41.21
8416;BME280;4245;42.120;24.732;2023-04-07T06:24:41;99245.91;;;10.10;41.73
8416;BME280;4245;42.120;24.732;2023-04-07T06:27:08;99247.94;;;10.06;41.66
8416;BME280;4245;42.120;24.732;2023-04-07T06:29:35;99251.22;;;10.10;42.47
8416;BME280;4245;42.120;24.732;2023-04-07T06:32:02;99256.34;;;10.38;41.80
8416;BME280;4245;42.120;24.732;2023-04-07T06:34:29;99256.03;;;10.55;40.13
8416;BME280;4245;42.120;24.732;2023-04-07T06:36:57;99258.91;;;10.39;38.98
8416;BME280;4245;42.120;24.732;2023-04-07T06:39:26;99265.38;;;10.23;39.05
8416;BME280;4245;42.120;24.732;2023-04-07T06:41:53;99258.69;;;10.17;40.21
8416;BME280;4245;42.120;24.732;2023-04-07T06:46:56;99268.56;;;10.53;38.97
8416;BME280;4245;42.120;24.732;2023-04-07T06:49:23;99255.38;;;10.64;38.60
8416;BME280;4245;42.120;24.732;2023-04-07T06:51:50;99256.16;;;10.90;38.09
8416;BME280;4245;42.120;24.732;2023-04-07T06:54:18;99268.25;;;11.07;38.10
8416;BME280;4245;42.120;24.732;2023-04-07T06:56:45;99273.19;;;11.24;37.01
8416;BME280;4245;42.120;24.732;2023-04-07T06:59:12;99274.28;;;11.09;36.98
8416;BME280;4245;42.120;24.732;2023-04-07T07:01:39;99269.56;;;11.25;36.36
8416;BME280;4245;42.120;24.732;2023-04-07T07:04:08;99263.56;;;11.34;37.08
8416;BME280;4245;42.120;24.732;2023-04-07T07:06:35;99280.22;;;11.72;36.44
8416;BME280;4245;42.120;24.732;2023-04-07T07:09:02;99270.50;;;11.84;35.41
8416;BME280;4245;42.120;24.732;2023-04-07T07:11:31;99272.31;;;11.84;35.82
8416;BME280;4245;42.120;24.732;2023-04-07T07:13:58;99265.88;;;12.21;34.29
8416;BME280;4245;42.120;24.732;2023-04-07T07:16:25;99280.06;;;12.55;34.79
8416;BME280;4245;42.120;24.732;2023-04-07T07:18:53;99275.38;;;12.92;33.86
8416;BME280;4245;42.120;24.732;2023-04-07T07:21:20;99272.09;;;12.99;33.62
8416;BME280;4245;42.120;24.732;2023-04-07T07:23:47;99276.97;;;13.17;33.10
8416;BME280;4245;42.120;24.732;2023-04-07T07:26:14;99268.56;;;13.10;32.61
8416;BME280;4245;42.120;24.732;2023-04-07T07:28:42;99275.47;;;13.13;32.73
8416;BME280;4245;42.120;24.732;2023-04-07T07:31:10;99278.25;;;13.33;32.19
8416;BME280;4245;42.120;24.732;2023-04-07T07:33:39;99277.06;;;13.69;32.63
8416;BME280;4245;42.120;24.732;2023-04-07T07:36:08;99278.72;;;13.70;32.83
8416;BME280;4245;42.120;24.732;2023-04-07T07:38:35;99281.78;;;13.98;32.13
8416;BME280;4245;42.120;24.732;2023-04-07T07:41:02;99277.72;;;14.24;32.08
8416;BME280;4245;42.120;24.732;2023-04-07T07:43:29;99271.06;;;13.45;32.74
8416;BME280;4245;42.120;24.732;2023-04-07T07:45:58;99274.53;;;13.14;33.41
8416;BME280;4245;42.120;24.732;2023-04-07T07:48:24;99269.97;;;13.36;33.71
8416;BME280;4245;42.120;24.732;2023-04-07T07:50:51;99271.34;;;13.94;33.56
8416;BME280;4245;42.120;24.732;2023-04-07T07:53:21;99272.59;;;14.53;32.21
8416;BME280;4245;42.120;24.732;2023-04-07T07:55:48;99276.69;;;14.87;31.75
8416;BME280;4245;42.120;24.732;2023-04-07T07:58:15;99275.16;;;14.85;31.46
8416;BME280;4245;42.120;24.732;2023-04-07T08:00:42;99268.63;;;14.77;31.58
8416;BME280;4245;42.120;24.732;2023-04-07T08:03:10;99265.56;;;14.82;31.23
8416;BME280;4245;42.120;24.732;2023-04-07T08:05:37;99267.91;;;15.06;31.52
8416;BME280;4245;42.120;24.732;2023-04-07T08:08:04;99263.34;;;15.46;30.63
8416;BME280;4245;42.120;24.732;2023-04-07T08:10:31;99270.31;;;15.58;30.23
8416;BME280;4245;42.120;24.732;2023-04-07T08:12:58;99271.81;;;14.62;30.75
8416;BME280;4245;42.120;24.732;2023-04-07T08:15:25;99257.75;;;14.39;31.75
8416;BME280;4245;42.120;24.732;2023-04-07T08:17:52;99260.13;;;13.80;32.42
8416;BME280;4245;42.120;24.732;2023-04-07T08:20:20;99258.78;;;14.48;32.17
8416;BME280;4245;42.120;24.732;2023-04-07T08:22:48;99262.78;;;14.93;31.05
8416;BME280;4245;42.120;24.732;2023-04-07T08:25:15;99253.81;;;14.64;30.72
8416;BME280;4245;42.120;24.732;2023-04-07T08:27:42;99249.66;;;14.50;30.59
8416;BME280;4245;42.120;24.732;2023-04-07T08:30:09;99248.03;;;14.38;31.24
8416;BME280;4245;42.120;24.732;2023-04-07T08:32:36;99254.56;;;14.75;31.82
8416;BME280;4245;42.120;24.732;2023-04-07T08:35:04;99245.16;;;15.31;31.74
8416;BME280;4245;42.120;24.732;2023-04-07T08:37:33;99252.28;;;15.70;29.31
8416;BME280;4245;42.120;24.732;2023-04-07T08:40:02;99255.94;;;15.79;32.27
8416;BME280;4245;42.120;24.732;2023-04-07T08:42:31;99241.81;;;16.71;32.81
8416;BME280;4245;42.120;24.732;2023-04-07T08:45:02;99241.09;;;17.51;29.58
8416;BME280;4245;42.120;24.732;2023-04-07T08:47:31;99239.66;;;18.10;27.55
8416;BME280;4245;42.120;24.732;2023-04-07T08:50:00;99242.94;;;18.47;27.58
8416;BME280;4245;42.120;24.732;2023-04-07T08:52:33;99238.88;;;19.03;28.35
8416;BME280;4245;42.120;24.732;2023-04-07T08:55:03;99235.88;;;19.48;27.75
8416;BME280;4245;42.120;24.732;2023-04-07T08:57:31;99236.47;;;19.26;27.34
8416;BME280;4245;42.120;24.732;2023-04-07T08:59:59;99241.09;;;19.58;29.42
8416;BME280;4245;42.120;24.732;2023-04-07T09:02:31;99242.81;;;19.67;26.17
8416;BME280;4245;42.120;24.732;2023-04-07T09:04:59;99242.44;;;19.45;26.00
8416;BME280;4245;42.120;24.732;2023-04-07T09:07:26;99241.09;;;19.58;29.79
8416;BME280;4245;42.120;24.732;2023-04-07T09:09:55;99242.50;;;20.18;27.95
8416;BME280;4245;42.120;24.732;2023-04-07T09:12:22;99239.97;;;20.49;34.28
8416;BME280;4245;42.120;24.732;2023-04-07T09:14:49;99238.44;;;21.02;33.41
8416;BME280;4245;42.120;24.732;2023-04-07T09:17:16;99237.41;;;21.19;30.24
8416;BME280;4245;42.120;24.732;2023-04-07T09:19:43;99231.38;;;21.40;29.11
8416;BME280;4245;42.120;24.732;2023-04-07T09:22:10;99239.78;;;21.76;28.17
8416;BME280;4245;42.120;24.732;2023-04-07T09:24:39;99238.97;;;21.44;24.93
8416;BME280;4245;42.120;24.732;2023-04-07T09:27:12;99239.31;;;20.23;25.47
8416;BME280;4245;42.120;24.732;2023-04-07T09:29:41;99234.94;;;20.38;29.83
8416;BME280;4245;42.120;24.732;2023-04-07T09:32:08;99230.19;;;21.03;26.08
8416;BME280;4245;42.120;24.732;2023-04-07T09:34:36;99226.13;;;20.20;26.82
8416;BME280;4245;42.120;24.732;2023-04-07T09:37:04;99218.13;;;19.29;33.86
8416;BME280;4245;42.120;24.732;2023-04-07T09:39:31;99219.41;;;19.91;27.90
8416;BME280;4245;42.120;24.732;2023-04-07T09:42:05;99217.06;;;20.92;29.40
8416;BME280;4245;42.120;24.732;2023-04-07T09:44:38;99229.78;;;21.53;31.07
8416;BME280;4245;42.120;24.732;2023-04-07T09:47:05;99219.25;;;22.12;29.29
8416;BME280;4245;42.120;24.732;2023-04-07T09:49:32;99221.47;;;22.46;23.95
8416;BME280;4245;42.120;24.732;2023-04-07T09:52:13;99213.88;;;22.27;29.52
8416;BME280;4245;42.120;24.732;2023-04-07T09:54:42;99215.44;;;21.76;29.26
8416;BME280;4245;42.120;24.732;2023-04-07T09:57:10;99224.56;;;21.75;30.74
8416;BME280;4245;42.120;24.732;2023-04-07T09:59:40;99218.72;;;20.46;29.79
8416;BME280;4245;42.120;24.732;2023-04-07T10:02:10;99218.09;;;20.04;27.43
8416;BME280;4245;42.120;24.732;2023-04-07T10:04:37;99219.75;;;21.00;25.37
8416;BME280;4245;42.120;24.732;2023-04-07T10:07:05;99226.47;;;20.49;25.23
8416;BME280;4245;42.120;24.732;2023-04-07T10:09:32;99215.38;;;19.95;30.86
8416;BME280;4245;42.120;24.732;2023-04-07T10:11:59;99222.38;;;20.69;25.50
8416;BME280;4245;42.120;24.732;2023-04-07T10:14:29;99217.66;;;21.49;24.90
8416;BME280;4245;42.120;24.732;2023-04-07T10:16:58;99222.09;;;21.03;25.09
8416;BME280;4245;42.120;24.732;2023-04-07T10:19:28;99213.63;;;21.45;24.73
8416;BME280;4245;42.120;24.732;2023-04-07T10:21:58;99219.91;;;21.38;23.94
8416;BME280;4245;42.120;24.732;2023-04-07T10:24:43;99217.84;;;21.71;26.13
8416;BME280;4245;42.120;24.732;2023-04-07T10:27:14;99222.09;;;21.96;23.46
8416;BME280;4245;42.120;24.732;2023-04-07T10:29:44;99218.06;;;22.29;23.48
8416;BME280;4245;42.120;24.732;2023-04-07T10:32:14;99218.25;;;22.42;26.73
8416;BME280;4245;42.120;24.732;2023-04-07T10:34:58;99218.19;;;23.09;26.18
8416;BME280;4245;42.120;24.732;2023-04-07T10:37:25;99221.28;;;23.21;22.41
8416;BME280;4245;42.120;24.732;2023-04-07T10:40:27;99212.66;;;23.32;26.11
8416;BME280;4245;42.120;24.732;2023-04-07T10:42:54;99224.50;;;24.03;24.08
8416;BME280;4245;42.120;24.732;2023-04-07T10:45:53;99208.88;;;24.54;23.68
8416;BME280;4245;42.120;24.732;2023-04-07T10:48:22;99215.00;;;24.35;21.86
8416;BME280;4245;42.120;24.732;2023-04-07T10:51:14;99208.22;;;24.52;23.74
8416;BME280;4245;42.120;24.732;2023-04-07T10:57:11;99208.81;;;24.19;22.09
8416;BME280;4245;42.120;24.732;2023-04-07T10:59:40;99211.44;;;24.34;22.28
8416;BME280;4245;42.120;24.732;2023-04-07T11:02:33;99207.19;;;24.04;23.95
8416;BME280;4245;42.120;24.732;2023-04-07T11:05:02;99205.69;;;23.23;23.65
8416;BME280;4245;42.120;24.732;2023-04-07T11:07:49;99207.56;;;23.58;22.54
8416;BME280;4245;42.120;24.732;2023-04-07T11:10:18;99214.94;;;23.86;21.47
8416;BME280;4245;42.120;24.732;2023-04-07T11:13:04;99204.66;;;23.60;24.04
8416;BME280;4245;42.120;24.732;2023-04-07T11:15:32;99212.81;;;22.94;22.78
8416;BME280;4245;42.120;24.732;2023-04-07T11:20:45;99205.06;;;22.10;24.28
8416;BME280;4245;42.120;24.732;2023-04-07T11:23:13;99196.25;;;22.31;24.24
8416;BME280;4245;42.120;24.732;2023-04-07T11:25:42;99192.75;;;22.74;23.71
8416;BME280;4245;42.120;24.732;2023-04-07T11:28:11;99193.94;;;23.01;23.69
8416;BME280;4245;42.120;24.732;2023-04-07T11:30:43;99194.31;;;23.34;23.54
8416;BME280;4245;42.120;24.732;2023-04-07T11:33:14;99195.72;;;22.65;23.08
8416;BME280;4245;42.120;24.732;2023-04-07T11:35:48;99205.28;;;22.38;24.02
8416;BME280;4245;42.120;24.732;2023-04-07T11:38:15;99196.03;;;22.32;23.65
8416;BME280;4245;42.120;24.732;2023-04-07T11:40:42;99190.66;;;22.91;23.33
8416;BME280;4245;42.120;24.732;2023-04-07T11:43:16;99195.78;;;22.57;23.20
8416;BME280;4245;42.120;24.732;2023-04-07T11:45:43;99187.50;;;22.06;23.43
8416;BME280;4245;42.120;24.732;2023-04-07T11:50:55;99184.91;;;23.30;23.21
8416;BME280;4245;42.120;24.732;2023-04-07T11:53:26;99183.75;;;23.75;22.72
8416;BME280;4245;42.120;24.732;2023-04-07T11:56:03;99196.91;;;23.78;22.17
8416;BME280;4245;42.120;24.732;2023-04-07T11:58:31;99183.16;;;23.22;23.09
8416;BME280;4245;42.120;24.732;2023-04-07T12:00:59;99176.59;;;23.31;23.09
8416;BME280;4245;42.120;24.732;2023-04-07T12:03:29;99187.28;;;23.97;22.94
8416;BME280;4245;42.120;24.732;2023-04-07T12:05:58;99183.72;;;24.73;22.14
8416;BME280;4245;42.120;24.732;2023-04-07T12:08:38;99179.63;;;24.56;22.88
8416;BME280;4245;42.120;24.732;2023-04-07T12:11:06;99185.91;;;23.08;23.21
8416;BME280;4245;42.120;24.732;2023-04-07T12:13:33;99187.81;;;23.28;23.43
8416;BME280;4245;42.120;24.732;2023-04-07T12:16:00;99185.44;;;23.76;23.24
8416;BME280;4245;42.120;24.732;2023-04-07T12:18:28;99193.91;;;24.37;22.26
8416;BME280;4245;42.120;24.732;2023-04-07T12:20:55;99185.66;;;24.86;21.78
8416;BME280;4245;42.120;24.732;2023-04-07T12:23:24;99186.44;;;25.07;21.75
8416;BME280;4245;42.120;24.732;2023-04-07T12:25:52;99192.00;;;24.99;22.07
8416;BME280;4245;42.120;24.732;2023-04-07T12:28:18;99186.81;;;25.04;21.96
8416;BME280;4245;42.120;24.732;2023-04-07T12:30:45;99168.28;;;24.80;22.27
8416;BME280;4245;42.120;24.732;2023-04-07T12:33:13;99170.16;;;24.80;22.04
8416;BME280;4245;42.120;24.732;2023-04-07T12:35:40;99171.13;;;24.65;22.63
8416;BME280;4245;42.120;24.732;2023-04-07T12:38:07;99171.91;;;24.87;22.85
8416;BME280;4245;42.120;24.732;2023-04-07T12:40:35;99180.44;;;24.22;23.48
8416;BME280;4245;42.120;24.732;2023-04-07T12:43:02;99173.72;;;23.97;23.60
8416;BME280;4245;42.120;24.732;2023-04-07T12:45:30;99169.34;;;23.96;23.77
8416;BME280;4245;42.120;24.732;2023-04-07T12:47:57;99171.50;;;24.28;23.51
8416;BME280;4245;42.120;24.732;2023-04-07T12:50:24;99176.78;;;24.36;23.54
8416;BME280;4245;42.120;24.732;2023-04-07T12:52:52;99177.75;;;24.01;23.82
8416;BME280;4245;42.120;24.732;2023-04-07T12:55:19;99177.28;;;24.18;23.86
8416;BME280;4245;42.120;24.732;2023-04-07T12:57:48;99171.00;;;24.46;26.61
8416;BME280;4245;42.120;24.732;2023-04-07T13:00:15;99164.00;;;24.92;23.21
8416;BME280;4245;42.120;24.732;2023-04-07T13:02:42;99163.31;;;24.00;23.63
8416;BME280;4245;42.120;24.732;2023-04-07T13:05:10;99156.47;;;23.83;23.99
8416;BME280;4245;42.120;24.732;2023-04-07T13:07:37;99158.50;;;23.17;24.28
8416;BME280;4245;42.120;24.732;2023-04-07T13:10:05;99150.16;;;22.83;25.09
8416;BME280;4245;42.120;24.732;2023-04-07T13:12:34;99156.56;;;22.96;25.25
8416;BME280;4245;42.120;24.732;2023-04-07T13:15:02;99154.84;;;23.10;25.50
8416;BME280;4245;42.120;24.732;2023-04-07T13:17:29;99149.13;;;22.99;25.55
8416;BME280;4245;42.120;24.732;2023-04-07T13:19:57;99154.84;;;23.10;25.75
8416;BME280;4245;42.120;24.732;2023-04-07T13:22:24;99158.00;;;23.28;25.45
8416;BME280;4245;42.120;24.732;2023-04-07T13:24:50;99161.47;;;23.22;26.00
8416;BME280;4245;42.120;24.732;2023-04-07T13:27:17;99159.34;;;23.39;25.65
8416;BME280;4245;42.120;24.732;2023-04-07T13:29:44;99155.03;;;23.23;26.58
8416;BME280;4245;42.120;24.732;2023-04-07T13:32:13;99160.50;;;23.30;25.47
8416;BME280;4245;42.120;24.732;2023-04-07T13:34:41;99149.97;;;22.40;26.77